createdAt,value
2022-10-01T00:02:42.450Z,13.2
2022-10-01T00:12:43.357Z,13.2
2022-10-01T00:22:44.281Z,13.1
2022-10-01T00:32:45.136Z,13.1
2022-10-01T00:42:45.422Z,13.1
2022-10-01T00:52:45.523Z,13
2022-10-01T01:02:46.511Z,12.8
2022-10-01T01:12:47.036Z,12.2
2022-10-01T01:22:47.395Z,11.9
2022-10-01T01:32:48.038Z,11.7
2022-10-01T01:42:48.614Z,11.5
2022-10-01T01:52:48.987Z,11.4
2022-10-01T02:02:49.453Z,11.4
2022-10-01T02:12:49.403Z,11.2
2022-10-01T02:22:49.954Z,11.2
2022-10-01T02:32:50.369Z,11.2
2022-10-01T02:42:50.710Z,11.1
2022-10-01T02:52:50.798Z,11.1
2022-10-01T03:02:51.112Z,11
2022-10-01T03:12:51.334Z,10.9
2022-10-01T03:22:51.620Z,10.9
2022-10-01T03:42:53.221Z,10.9
2022-10-01T03:52:53.940Z,10.9
2022-10-01T04:02:54.204Z,10.8
2022-10-01T04:12:55.174Z,10.8
2022-10-01T04:22:55.890Z,10.9
2022-10-01T04:32:56.782Z,10.9
2022-10-01T04:42:57.086Z,11
2022-10-01T04:52:57.207Z,11.2
2022-10-01T05:02:57.326Z,11.4
2022-10-01T05:12:57.559Z,11.5
2022-10-01T05:22:57.680Z,11.6
2022-10-01T05:32:58.601Z,11.5
2022-10-01T05:42:59.291Z,11.5
2022-10-01T05:53:00.150Z,11.5
2022-10-01T06:03:00.923Z,11.5
2022-10-01T06:13:01.685Z,11.4
2022-10-01T06:23:02.149Z,11.5
2022-10-01T06:33:02.778Z,11.6
2022-10-01T06:43:03.643Z,11.6
2022-10-01T06:53:03.815Z,11.6
2022-10-01T07:03:04.428Z,11.7
2022-10-01T07:13:04.833Z,11.8
2022-10-01T07:23:05.803Z,12
2022-10-01T07:33:06.115Z,11.9
2022-10-01T07:43:06.590Z,12
2022-10-01T07:53:07.386Z,12.1
2022-10-01T08:03:07.489Z,12.2
2022-10-01T08:13:07.793Z,12.4
2022-10-01T08:23:08.811Z,12.6
2022-10-01T08:33:09.003Z,13.1
2022-10-01T08:43:09.941Z,13.4
2022-10-01T08:53:10.063Z,13.6
2022-10-01T09:03:10.159Z,13.7
2022-10-01T09:13:10.596Z,13.9
2022-10-01T09:23:11.546Z,14.2
2022-10-01T09:33:11.882Z,14.3
2022-10-01T09:43:12.267Z,14.3
2022-10-01T09:53:13.207Z,14.4
2022-10-01T10:03:13.447Z,14.7
2022-10-01T10:13:14.145Z,14.6
2022-10-01T10:23:14.560Z,14.4
2022-10-01T10:43:16.392Z,14.8
2022-10-01T10:53:17.151Z,15
2022-10-01T11:03:17.711Z,15.6
2022-10-01T11:13:18.401Z,16.1
2022-10-01T11:23:18.844Z,16
2022-10-01T11:33:19.651Z,16.4
2022-10-01T11:43:19.819Z,16
2022-10-01T11:53:20.211Z,16
2022-10-01T12:13:20.899Z,16.4
2022-10-01T12:23:21.364Z,16
2022-10-01T12:33:22.154Z,14.8
2022-10-01T12:43:22.731Z,15.4
2022-10-01T12:53:22.896Z,15.6
2022-10-01T13:03:23.060Z,15.3
2022-10-01T13:13:23.979Z,14
2022-10-01T13:23:24.087Z,13.3
2022-10-01T13:33:29.736Z,13.8
2022-10-01T13:43:29.893Z,12.8
2022-10-01T13:53:30.423Z,13.3
2022-10-01T14:03:30.810Z,13.9
2022-10-01T14:53:33.349Z,15.6
2022-10-01T15:13:33.763Z,14.3
2022-10-01T15:23:34.202Z,14.2
2022-10-01T15:33:34.405Z,14.7
2022-10-01T15:43:35.224Z,15
2022-10-01T15:53:35.298Z,15.2
2022-10-01T16:03:36.293Z,15.5
2022-10-01T16:13:37.073Z,15.4
2022-10-01T16:23:37.439Z,15.3
2022-10-01T16:33:38.249Z,15.2
2022-10-01T16:43:38.496Z,15.2
2022-10-01T16:53:39.507Z,15.1
2022-10-01T17:03:40.345Z,15
2022-10-01T17:13:40.984Z,14.9
2022-10-01T17:23:41.284Z,14.4
2022-10-01T17:33:41.758Z,14.2
2022-10-01T17:43:42.472Z,13.9
2022-10-01T17:53:43.081Z,14.1
2022-10-01T18:03:43.222Z,13.9
2022-10-01T18:13:43.790Z,13.8
2022-10-01T18:23:44.298Z,13.9
2022-10-01T18:33:44.969Z,13.9
2022-10-01T18:43:45.619Z,13.6
2022-10-01T18:53:46.318Z,13.4
2022-10-01T19:03:47.184Z,13.1
2022-10-01T19:13:47.420Z,13
2022-10-01T19:23:47.942Z,13.1
2022-10-01T19:33:48.495Z,13.4
2022-10-01T19:43:48.616Z,13.5
2022-10-01T19:53:48.908Z,13.5
2022-10-01T20:03:49.482Z,13.3
2022-10-01T20:13:50.565Z,13.3
2022-10-01T20:23:50.874Z,13.3
2022-10-01T20:33:51.526Z,13.2
2022-10-01T20:43:52.513Z,13.1
2022-10-01T21:03:54.335Z,13.2
2022-10-01T21:13:55.098Z,13.2
2022-10-01T21:23:55.385Z,13.3
2022-10-01T21:33:55.526Z,13.3
2022-10-01T21:43:56.703Z,13.1
2022-10-01T21:53:56.638Z,13.1
2022-10-01T22:03:56.878Z,13.1
2022-10-01T22:13:57.186Z,13.1
2022-10-01T22:23:58.039Z,13
2022-10-01T22:33:58.558Z,13.1
2022-10-01T22:43:59.541Z,13
2022-10-01T22:53:59.880Z,13
2022-10-01T23:14:01.326Z,13
2022-10-01T23:54:03.225Z,13
